createdAt,value
2017-07-03T00:01:24.166Z,90.50
2017-07-03T00:03:51.655Z,90.40
2017-07-03T00:06:19.130Z,90.30
2017-07-03T00:08:46.623Z,90.20
2017-07-03T00:11:14.104Z,90.30
2017-07-03T00:13:41.590Z,90.20
2017-07-03T00:16:09.071Z,90.20
2017-07-03T00:18:36.546Z,90.10
2017-07-03T00:21:04.035Z,90.20
2017-07-03T00:23:32.283Z,90.30
2017-07-03T00:25:59.770Z,90.00
2017-07-03T00:28:28.015Z,90.10
2017-07-03T00:30:55.521Z,90.10
2017-07-03T00:33:23.001Z,90.20
2017-07-03T00:35:50.494Z,90.30
2017-07-03T00:38:17.975Z,90.40
2017-07-03T00:40:45.476Z,90.50
2017-07-03T00:43:12.951Z,90.60
2017-07-03T00:45:40.448Z,90.80
2017-07-03T00:48:07.945Z,90.80
2017-07-03T00:50:35.439Z,90.90
2017-07-03T00:53:02.915Z,91.30
2017-07-03T00:55:30.947Z,91.50
2017-07-03T00:57:58.447Z,91.60
2017-07-03T01:00:25.923Z,91.60
2017-07-03T01:02:53.414Z,91.60
2017-07-03T01:05:20.890Z,91.70
2017-07-03T01:07:48.390Z,91.70
2017-07-03T01:10:15.867Z,91.70
2017-07-03T01:12:43.356Z,91.60
2017-07-03T01:15:10.839Z,91.60
2017-07-03T01:17:38.334Z,91.70
2017-07-03T01:20:05.810Z,91.70
2017-07-03T01:22:33.306Z,91.90
2017-07-03T01:25:00.788Z,91.90
2017-07-03T01:27:28.290Z,92.10
2017-07-03T01:29:55.760Z,92.10
2017-07-03T01:32:24.006Z,92.20
2017-07-03T01:34:51.494Z,92.20
2017-07-03T01:37:19.733Z,92.30
2017-07-03T01:39:47.223Z,92.00
2017-07-03T01:42:14.702Z,92.00
2017-07-03T01:44:42.195Z,92.20
2017-07-03T01:47:09.669Z,92.30
2017-07-03T01:49:37.163Z,92.30
2017-07-03T01:52:04.635Z,92.30
2017-07-03T01:54:32.131Z,92.40
2017-07-03T01:56:59.606Z,92.40
2017-07-03T01:59:27.862Z,92.50
2017-07-03T02:01:55.331Z,92.70
2017-07-03T02:04:22.831Z,92.70
2017-07-03T02:06:50.312Z,92.40
2017-07-03T02:09:17.791Z,92.80
2017-07-03T02:11:45.281Z,92.40
2017-07-03T02:14:12.759Z,92.10
2017-07-03T02:16:40.259Z,92.30
2017-07-03T02:19:07.735Z,91.90
2017-07-03T02:21:35.995Z,92.10
2017-07-03T02:24:03.474Z,92.10
2017-07-03T02:26:30.998Z,92.80
2017-07-03T02:28:58.470Z,92.40
2017-07-03T02:31:26.710Z,92.50
2017-07-03T02:33:54.207Z,92.50
2017-07-03T02:36:23.298Z,92.20
2017-07-03T02:38:51.560Z,92.40
2017-07-03T02:41:19.034Z,92.10
2017-07-03T02:43:47.311Z,91.90
2017-07-03T02:46:15.550Z,92.10
2017-07-03T02:48:43.043Z,92.00
2017-07-03T02:51:11.286Z,92.10
2017-07-03T02:53:38.774Z,92.10
2017-07-03T02:56:07.043Z,92.40
2017-07-03T02:58:35.298Z,92.60
2017-07-03T03:01:02.771Z,92.40
2017-07-03T03:03:31.031Z,92.30
2017-07-03T03:05:58.526Z,92.30
2017-07-03T03:08:26.039Z,92.40
2017-07-03T03:10:53.523Z,92.50
2017-07-03T03:13:21.022Z,92.60
2017-07-03T03:15:48.506Z,92.50
2017-07-03T03:18:16.031Z,92.70
2017-07-03T03:20:43.518Z,92.40
2017-07-03T03:23:10.992Z,92.50
2017-07-03T03:25:38.487Z,92.10
2017-07-03T03:28:05.975Z,92.20
2017-07-03T03:30:33.479Z,92.10
2017-07-03T03:33:00.966Z,92.20
2017-07-03T03:35:28.459Z,92.10
2017-07-03T03:37:55.938Z,91.90
2017-07-03T03:40:24.201Z,91.50
2017-07-03T03:42:52.447Z,91.50
2017-07-03T03:45:19.942Z,91.40
2017-07-03T03:47:48.190Z,91.90
2017-07-03T03:50:15.672Z,91.90
2017-07-03T03:52:43.939Z,91.70
2017-07-03T03:55:12.194Z,91.90
2017-07-03T03:57:39.688Z,91.90
2017-07-03T04:00:07.168Z,92.10
2017-07-03T04:02:34.655Z,92.20
2017-07-03T04:05:02.154Z,91.90
2017-07-03T04:07:29.650Z,92.00
2017-07-03T04:09:57.127Z,91.90
2017-07-03T04:12:24.622Z,92.10
2017-07-03T04:14:52.108Z,92.10
2017-07-03T04:17:19.607Z,92.20
2017-07-03T04:19:47.087Z,92.00
2017-07-03T04:22:14.623Z,92.10
2017-07-03T04:24:42.110Z,92.20
2017-07-03T04:27:09.613Z,92.30
2017-07-03T04:29:37.114Z,92.20
2017-07-03T04:32:05.368Z,92.10
2017-07-03T04:34:32.866Z,92.00
2017-07-03T04:37:00.350Z,92.10
2017-07-03T04:39:27.850Z,91.90
2017-07-03T04:41:55.331Z,91.90
2017-07-03T04:44:22.822Z,91.60
2017-07-03T04:46:50.291Z,91.40
2017-07-03T04:49:17.803Z,91.10
2017-07-03T04:51:45.280Z,91.00
2017-07-03T04:54:12.754Z,91.00
2017-07-03T04:56:40.249Z,91.00
2017-07-03T04:59:08.498Z,91.00
2017-07-03T05:01:35.998Z,91.00
2017-07-03T05:04:03.483Z,91.00
2017-07-03T05:06:30.970Z,90.50
2017-07-03T05:08:58.442Z,90.00
2017-07-03T05:11:26.710Z,89.60
2017-07-03T05:13:54.955Z,88.70
2017-07-03T05:16:22.446Z,88.70
2017-07-03T05:18:50.692Z,87.40
2017-07-03T05:21:18.187Z,86.70
2017-07-03T05:23:46.451Z,84.20
2017-07-03T05:26:14.695Z,84.20
2017-07-03T05:28:42.186Z,84.00
2017-07-03T05:31:10.425Z,85.50
2017-07-03T05:33:37.923Z,84.70
2017-07-03T05:36:05.398Z,84.10
2017-07-03T05:38:32.900Z,83.80
2017-07-03T05:41:00.376Z,82.90
2017-07-03T05:43:33.647Z,83.10
2017-07-03T05:46:01.126Z,81.90
2017-07-03T05:48:28.630Z,80.20
2017-07-03T05:50:56.106Z,80.40
2017-07-03T05:53:23.598Z,78.40
2017-07-03T05:55:51.843Z,76.20
2017-07-03T05:58:19.338Z,76.90
2017-07-03T06:00:47.590Z,75.10
2017-07-03T06:03:15.072Z,75.00
2017-07-03T06:05:42.570Z,74.30
2017-07-03T06:08:10.050Z,73.30
2017-07-03T06:10:37.538Z,71.90
2017-07-03T06:13:05.783Z,68.80
2017-07-03T06:15:33.281Z,68.60
2017-07-03T06:18:01.526Z,64.40
2017-07-03T06:20:29.014Z,64.30
2017-07-03T06:22:56.507Z,60.60
2017-07-03T06:25:23.991Z,58.30
2017-07-03T06:27:51.474Z,55.10
2017-07-03T06:30:19.727Z,56.10
2017-07-03T06:32:47.198Z,56.00
2017-07-03T06:35:15.437Z,55.30
2017-07-03T06:37:42.926Z,55.20
2017-07-03T06:40:10.398Z,51.20
2017-07-03T06:42:38.660Z,50.10
2017-07-03T06:45:06.127Z,50.00
2017-07-03T06:47:33.619Z,52.30
2017-07-03T06:50:01.090Z,55.30
2017-07-03T06:52:28.583Z,57.00
2017-07-03T06:54:56.058Z,58.10
2017-07-03T06:57:23.550Z,57.90
2017-07-03T06:59:51.112Z,58.00
2017-07-03T07:02:18.587Z,57.10
2017-07-03T07:04:46.074Z,57.00
2017-07-03T07:07:14.310Z,56.60
2017-07-03T07:09:41.807Z,56.60
2017-07-03T07:12:10.042Z,58.30
2017-07-03T07:14:38.350Z,58.30
2017-07-03T07:17:06.586Z,64.20
2017-07-03T07:19:34.091Z,64.20
2017-07-03T07:22:02.330Z,59.30
2017-07-03T07:24:29.828Z,59.20
2017-07-03T07:26:57.308Z,57.30
2017-07-03T07:29:24.795Z,56.90
2017-07-03T07:31:52.270Z,59.10
2017-07-03T07:34:19.763Z,59.70
2017-07-03T07:36:47.242Z,62.60
2017-07-03T07:39:14.736Z,60.20
2017-07-03T07:41:42.210Z,59.70
2017-07-03T07:44:09.727Z,58.90
2017-07-03T07:46:37.206Z,59.30
2017-07-03T07:49:04.684Z,58.90
2017-07-03T07:51:32.170Z,59.20
2017-07-03T07:53:59.642Z,60.20
2017-07-03T07:56:27.130Z,59.50
2017-07-03T07:58:54.613Z,59.50
2017-07-03T08:01:22.119Z,59.80
2017-07-03T08:03:49.600Z,60.00
2017-07-03T08:06:17.102Z,58.70
2017-07-03T08:08:44.581Z,58.20
2017-07-03T08:11:12.088Z,58.30
2017-07-03T08:13:40.330Z,58.00
2017-07-03T08:16:07.822Z,58.00
2017-07-03T08:18:35.296Z,58.10
2017-07-03T08:21:02.793Z,58.10
2017-07-03T08:23:30.271Z,57.50
2017-07-03T08:25:57.764Z,57.70
2017-07-03T08:28:25.250Z,58.50
2017-07-03T08:30:52.722Z,58.90
2017-07-03T08:33:20.239Z,57.90
2017-07-03T08:35:47.715Z,54.50
2017-07-03T08:38:15.202Z,51.50
2017-07-03T08:40:42.669Z,49.80
2017-07-03T08:43:10.150Z,50.20
2017-07-03T08:45:38.390Z,52.00
2017-07-03T08:48:05.881Z,52.00
2017-07-03T08:50:34.122Z,52.40
2017-07-03T08:53:01.614Z,52.40
2017-07-03T08:55:29.854Z,52.80
2017-07-03T08:57:57.342Z,52.80
2017-07-03T09:00:25.591Z,51.10
2017-07-03T09:02:53.067Z,51.10
2017-07-03T09:05:21.330Z,54.10
2017-07-03T09:07:48.802Z,54.10
2017-07-03T09:10:17.054Z,50.20
2017-07-03T09:12:44.524Z,50.10
2017-07-03T09:15:12.017Z,46.90
2017-07-03T09:17:39.487Z,46.50
2017-07-03T09:20:06.982Z,48.50
2017-07-03T09:22:34.458Z,50.20
2017-07-03T09:25:01.982Z,52.90
2017-07-03T09:27:29.459Z,51.70
2017-07-03T09:29:56.947Z,50.30
2017-07-03T09:32:24.421Z,49.30
2017-07-03T09:34:51.917Z,49.00
2017-07-03T09:37:19.390Z,45.50
2017-07-03T09:39:47.638Z,46.00
2017-07-03T09:42:15.131Z,45.70
2017-07-03T09:44:43.372Z,42.00
2017-07-03T09:47:10.874Z,42.00
2017-07-03T09:49:38.347Z,42.80
2017-07-03T09:52:05.840Z,43.10
2017-07-03T09:54:33.311Z,41.60
2017-07-03T09:57:00.802Z,40.80
2017-07-03T09:59:28.277Z,36.90
2017-07-03T10:01:55.776Z,37.30
2017-07-03T10:04:23.268Z,36.00
2017-07-03T10:06:50.759Z,37.70
2017-07-03T10:09:18.226Z,39.20
2017-07-03T10:11:45.722Z,41.70
2017-07-03T10:14:13.953Z,37.70
2017-07-03T10:16:41.461Z,37.60
2017-07-03T10:19:08.942Z,38.30
2017-07-03T10:21:36.415Z,35.70
2017-07-03T10:24:03.899Z,35.30
2017-07-03T10:26:31.390Z,36.80
2017-07-03T10:28:58.923Z,37.20
2017-07-03T10:31:27.167Z,35.70
2017-07-03T10:33:54.663Z,35.60
2017-07-03T10:36:22.231Z,35.90
2017-07-03T10:38:49.724Z,34.60
2017-07-03T10:41:17.195Z,33.70
2017-07-03T10:43:44.686Z,34.30
2017-07-03T10:46:12.155Z,36.10
2017-07-03T10:48:39.631Z,35.90
2017-07-03T10:51:07.135Z,36.00
2017-07-03T10:53:34.613Z,35.10
2017-07-03T10:56:02.121Z,34.20
2017-07-03T10:58:29.604Z,34.70
2017-07-03T11:00:57.866Z,34.70
2017-07-03T11:03:25.351Z,34.60
2017-07-03T11:05:52.848Z,35.80
2017-07-03T11:08:20.325Z,37.60
2017-07-03T11:10:47.799Z,37.10
2017-07-03T11:13:16.060Z,37.00
2017-07-03T11:15:44.294Z,39.50
2017-07-03T11:18:11.779Z,39.10
2017-07-03T11:20:39.255Z,38.50
2017-07-03T11:23:06.754Z,38.30
2017-07-03T11:25:34.222Z,40.80
2017-07-03T11:28:01.711Z,40.30
2017-07-03T11:30:29.957Z,39.10
2017-07-03T11:32:57.455Z,39.10
2017-07-03T11:35:24.935Z,38.80
2017-07-03T11:37:52.445Z,37.80
2017-07-03T11:40:20.690Z,37.30
2017-07-03T11:42:48.178Z,37.80
2017-07-03T11:45:16.436Z,37.90
2017-07-03T11:47:43.906Z,37.90
2017-07-03T11:50:12.167Z,36.70
2017-07-03T11:52:39.636Z,36.70
2017-07-03T11:55:07.886Z,35.70
2017-07-03T11:57:35.354Z,35.70
2017-07-03T12:00:02.839Z,35.40
2017-07-03T12:02:30.307Z,37.70
2017-07-03T12:04:57.803Z,37.00
2017-07-03T12:07:25.280Z,35.50
2017-07-03T12:09:53.542Z,34.90
2017-07-03T12:12:21.791Z,33.00
2017-07-03T12:14:49.278Z,33.40
2017-07-03T12:17:17.514Z,35.00
2017-07-03T12:19:45.003Z,34.90
2017-07-03T12:22:13.246Z,34.50
2017-07-03T12:24:40.750Z,34.20
2017-07-03T12:27:08.224Z,34.60
2017-07-03T12:29:35.695Z,34.30
2017-07-03T12:32:03.179Z,35.20
2017-07-03T12:34:30.662Z,35.90
2017-07-03T12:36:58.920Z,35.40
2017-07-03T12:39:27.150Z,33.70
2017-07-03T12:41:54.659Z,33.60
2017-07-03T12:44:22.899Z,34.10
2017-07-03T12:46:50.386Z,34.10
2017-07-03T12:49:18.669Z,37.50
2017-07-03T12:51:46.162Z,37.50
2017-07-03T12:54:13.643Z,38.60
2017-07-03T12:56:41.163Z,38.60
2017-07-03T12:59:08.632Z,37.20
2017-07-03T13:01:36.142Z,37.20
2017-07-03T13:04:03.610Z,36.10
2017-07-03T13:06:31.090Z,36.30
2017-07-03T13:08:58.574Z,36.80
2017-07-03T13:11:26.047Z,37.00
2017-07-03T13:13:53.548Z,35.50
2017-07-03T13:16:21.023Z,35.90
2017-07-03T13:18:48.511Z,37.30
2017-07-03T13:21:16.752Z,37.60
2017-07-03T13:23:44.236Z,37.60
2017-07-03T13:26:12.474Z,37.60
2017-07-03T13:28:39.966Z,37.60
2017-07-03T13:31:08.208Z,33.80
2017-07-03T13:33:35.700Z,33.80
2017-07-03T13:36:03.963Z,32.10
2017-07-03T13:38:32.219Z,32.10
2017-07-03T13:40:59.698Z,32.10
2017-07-03T13:43:27.954Z,31.70
2017-07-03T13:45:55.426Z,31.10
2017-07-03T13:48:22.929Z,30.70
2017-07-03T13:50:50.541Z,30.20
2017-07-03T13:53:19.676Z,30.20
2017-07-03T13:55:47.212Z,30.20
2017-07-03T13:58:14.694Z,31.70
2017-07-03T14:00:42.178Z,32.30
2017-07-03T14:03:10.454Z,32.30
2017-07-03T14:05:37.959Z,32.00
2017-07-03T14:08:05.430Z,30.30
2017-07-03T14:10:32.935Z,31.60
2017-07-03T14:13:01.188Z,32.60
2017-07-03T14:15:28.678Z,32.50
2017-07-03T14:17:56.157Z,32.80
2017-07-03T14:20:23.654Z,34.70
2017-07-03T14:22:51.127Z,34.70
2017-07-03T14:25:18.618Z,34.70
2017-07-03T14:27:46.091Z,34.80
2017-07-03T14:30:13.599Z,33.70
2017-07-03T14:32:41.082Z,33.70
2017-07-03T14:35:08.575Z,33.10
2017-07-03T14:37:36.053Z,32.50
2017-07-03T14:40:04.308Z,31.30
2017-07-03T14:42:31.778Z,31.20
2017-07-03T14:45:00.039Z,30.60
2017-07-03T14:47:27.540Z,30.00
2017-07-03T14:49:55.039Z,30.30
2017-07-03T14:52:22.516Z,30.40
2017-07-03T14:54:50.787Z,30.00
2017-07-03T14:57:19.036Z,30.80
2017-07-03T14:59:46.509Z,30.80
2017-07-03T15:02:14.771Z,32.30
2017-07-03T15:04:42.242Z,32.30
2017-07-03T15:07:10.498Z,33.50
2017-07-03T15:09:37.971Z,33.50
2017-07-03T15:12:06.230Z,35.10
2017-07-03T15:14:33.706Z,35.20
2017-07-03T15:17:01.967Z,36.00
2017-07-03T15:19:29.443Z,35.90
2017-07-03T15:21:56.935Z,36.40
2017-07-03T15:24:24.413Z,35.50
2017-07-03T15:26:51.894Z,34.60
2017-07-03T15:29:20.136Z,34.00
2017-07-03T15:31:47.643Z,34.00
2017-07-03T15:34:15.124Z,34.30
2017-07-03T15:36:42.604Z,34.70
2017-07-03T15:39:10.147Z,35.90
2017-07-03T15:41:37.623Z,35.00
2017-07-03T15:44:05.119Z,35.20
2017-07-03T15:46:32.592Z,34.90
2017-07-03T15:49:00.083Z,36.00
2017-07-03T15:51:27.568Z,36.10
2017-07-03T15:53:55.060Z,36.20
2017-07-03T15:56:22.566Z,36.20
2017-07-03T15:58:50.818Z,36.90
2017-07-03T16:01:18.287Z,36.90
2017-07-03T16:03:46.542Z,36.90
2017-07-03T16:06:14.007Z,36.40
2017-07-03T16:08:41.515Z,35.80
2017-07-03T16:11:08.987Z,35.90
2017-07-03T16:13:36.457Z,36.20
2017-07-03T16:16:03.950Z,36.50
2017-07-03T16:18:31.425Z,36.40
2017-07-03T16:20:58.914Z,37.00
2017-07-03T16:23:26.386Z,35.70
2017-07-03T16:25:53.874Z,36.30
2017-07-03T16:28:21.349Z,36.40
2017-07-03T16:30:48.838Z,35.80
2017-07-03T16:33:16.306Z,34.70
2017-07-03T16:35:43.792Z,35.90
2017-07-03T16:38:11.258Z,35.20
2017-07-03T16:40:38.754Z,35.30
2017-07-03T16:43:06.230Z,35.30
2017-07-03T16:45:33.709Z,35.30
2017-07-03T16:48:01.183Z,35.00
2017-07-03T16:50:28.678Z,34.50
2017-07-03T16:52:56.162Z,35.00
2017-07-03T16:55:24.411Z,34.20
2017-07-03T16:57:52.714Z,34.20
2017-07-03T17:00:20.192Z,34.00
2017-07-03T17:02:47.685Z,34.40
2017-07-03T17:05:15.918Z,33.80
2017-07-03T17:07:43.406Z,34.30
2017-07-03T17:10:10.871Z,34.40
2017-07-03T17:12:38.363Z,34.70
2017-07-03T17:15:05.843Z,35.00
2017-07-03T17:17:33.331Z,35.40
2017-07-03T17:20:00.803Z,35.20
2017-07-03T17:22:28.295Z,35.40
2017-07-03T17:24:55.772Z,35.60
2017-07-03T17:27:23.276Z,35.80
2017-07-03T17:29:51.515Z,36.80
2017-07-03T17:32:19.003Z,36.30
2017-07-03T17:34:47.250Z,37.20
2017-07-03T17:37:14.767Z,36.80
2017-07-03T17:39:42.247Z,36.60
2017-07-03T17:42:09.739Z,36.60
2017-07-03T17:44:38.013Z,37.40
2017-07-03T17:47:06.283Z,37.50
2017-07-03T17:49:33.769Z,37.50
2017-07-03T17:52:01.275Z,37.90
2017-07-03T17:54:28.743Z,37.70
2017-07-03T17:56:56.211Z,38.10
2017-07-03T17:59:24.467Z,37.80
2017-07-03T18:01:51.939Z,37.90
2017-07-03T18:04:19.427Z,38.00
2017-07-03T18:06:46.911Z,38.00
2017-07-03T18:09:14.403Z,38.10
2017-07-03T18:11:42.647Z,38.30
2017-07-03T18:14:10.148Z,38.30
2017-07-03T18:16:37.623Z,38.40
2017-07-03T18:19:05.132Z,38.40
2017-07-03T18:21:33.365Z,38.70
2017-07-03T18:24:00.875Z,38.70
2017-07-03T18:26:28.352Z,39.10
2017-07-03T18:28:55.838Z,39.70
2017-07-03T18:31:23.307Z,39.40
2017-07-03T18:33:52.428Z,39.70
2017-07-03T18:36:20.699Z,40.40
2017-07-03T18:38:48.954Z,40.70
2017-07-03T18:41:16.516Z,40.60
2017-07-03T18:43:44.900Z,40.90
2017-07-03T18:46:13.142Z,41.00
2017-07-03T18:48:40.633Z,41.00
2017-07-03T18:51:08.866Z,41.20
2017-07-03T18:53:36.347Z,41.20
2017-07-03T18:56:04.615Z,41.30
2017-07-03T18:58:32.086Z,41.30
2017-07-03T19:00:59.587Z,41.50
2017-07-03T19:03:27.059Z,41.30
2017-07-03T19:05:54.548Z,41.70
2017-07-03T19:08:22.802Z,41.70
2017-07-03T19:10:50.295Z,41.70
2017-07-03T19:13:17.778Z,41.50
2017-07-03T19:15:45.267Z,41.50
2017-07-03T19:18:12.739Z,41.70
2017-07-03T19:20:41.003Z,41.40
2017-07-03T19:23:09.250Z,41.70
2017-07-03T19:25:36.740Z,41.70
2017-07-03T19:28:04.980Z,41.70
2017-07-03T19:30:32.471Z,41.70
2017-07-03T19:33:00.709Z,42.20
2017-07-03T19:35:28.199Z,42.10
2017-07-03T19:37:56.438Z,42.40
2017-07-03T19:40:23.910Z,42.40
2017-07-03T19:42:52.169Z,43.50
2017-07-03T19:45:19.671Z,42.90
2017-07-03T19:47:47.171Z,43.20
2017-07-03T19:50:14.657Z,43.10
2017-07-03T19:52:42.920Z,43.90
2017-07-03T19:55:10.414Z,43.90
2017-07-03T19:57:37.923Z,44.10
2017-07-03T20:00:05.405Z,44.00
2017-07-03T20:02:32.887Z,44.00
2017-07-03T20:05:00.379Z,44.10
2017-07-03T20:07:27.851Z,44.30
2017-07-03T20:09:56.103Z,44.90
2017-07-03T20:12:23.582Z,44.90
2017-07-03T20:14:51.835Z,45.60
2017-07-03T20:17:19.311Z,45.00
2017-07-03T20:19:47.577Z,46.10
2017-07-03T20:22:15.823Z,46.80
2017-07-03T20:24:43.308Z,46.20
2017-07-03T20:27:11.546Z,47.30
2017-07-03T20:29:39.040Z,47.20
2017-07-03T20:32:07.295Z,46.70
2017-07-03T20:34:34.796Z,46.70
2017-07-03T20:37:02.273Z,47.70
2017-07-03T20:39:29.762Z,46.90
2017-07-03T20:41:57.248Z,47.20
2017-07-03T20:44:24.743Z,47.30
2017-07-03T20:46:52.216Z,47.40
2017-07-03T20:49:19.715Z,47.30
2017-07-03T20:51:47.184Z,47.70
2017-07-03T20:54:14.676Z,46.40
2017-07-03T20:56:42.150Z,46.00
2017-07-03T20:59:09.647Z,45.80
2017-07-03T21:01:37.123Z,46.50
2017-07-03T21:04:04.631Z,46.40
2017-07-03T21:06:32.867Z,47.10
2017-07-03T21:09:00.339Z,47.10
2017-07-03T21:11:27.830Z,47.30
2017-07-03T21:13:55.351Z,47.90
2017-07-03T21:16:23.614Z,48.20
2017-07-03T21:18:51.084Z,47.50
2017-07-03T21:21:18.572Z,47.80
2017-07-03T21:23:46.039Z,46.80
2017-07-03T21:26:13.553Z,47.40
2017-07-03T21:28:41.792Z,47.50
2017-07-03T21:31:09.291Z,47.50
2017-07-03T21:33:37.525Z,47.70
2017-07-03T21:36:05.019Z,47.70
2017-07-03T21:38:32.494Z,48.40
2017-07-03T21:40:59.988Z,48.40
2017-07-03T21:43:27.464Z,47.60
2017-07-03T21:45:55.711Z,48.10
2017-07-03T21:48:23.207Z,47.40
2017-07-03T21:50:51.443Z,46.90
2017-07-03T21:53:18.943Z,46.90
2017-07-03T21:55:46.411Z,46.10
2017-07-03T21:58:13.906Z,46.00
2017-07-03T22:00:41.379Z,46.60
2017-07-03T22:03:08.884Z,46.50
2017-07-03T22:05:36.359Z,46.60
2017-07-03T22:08:03.858Z,46.90
2017-07-03T22:10:31.328Z,46.60
2017-07-03T22:12:58.826Z,46.70
2017-07-03T22:15:26.298Z,47.10
2017-07-03T22:17:53.787Z,46.90
2017-07-03T22:20:21.260Z,47.20
2017-07-03T22:22:48.754Z,47.70
2017-07-03T22:25:16.228Z,47.80
2017-07-03T22:27:43.699Z,48.20
2017-07-03T22:30:11.960Z,48.30
2017-07-03T22:32:39.430Z,48.20
2017-07-03T22:35:07.697Z,48.80
2017-07-03T22:37:35.936Z,48.60
2017-07-03T22:40:03.426Z,48.60
2017-07-03T22:42:31.671Z,49.00
2017-07-03T22:44:59.162Z,49.00
2017-07-03T22:47:27.395Z,49.20
2017-07-03T22:49:54.891Z,49.20
2017-07-03T22:52:23.130Z,49.70
2017-07-03T22:54:50.626Z,49.60
2017-07-03T22:57:18.095Z,49.70
2017-07-03T22:59:45.567Z,49.50
2017-07-03T23:02:13.065Z,49.60
2017-07-03T23:04:40.543Z,49.60
2017-07-03T23:07:08.035Z,50.00
2017-07-03T23:09:35.515Z,48.70
2017-07-03T23:12:03.009Z,49.30
2017-07-03T23:14:31.258Z,48.80
2017-07-03T23:16:58.751Z,48.80
2017-07-03T23:19:26.248Z,49.20
2017-07-03T23:21:53.743Z,49.10
2017-07-03T23:24:21.981Z,49.40
2017-07-03T23:26:49.481Z,49.30
2017-07-03T23:29:16.960Z,48.90
2017-07-03T23:31:44.435Z,49.10
2017-07-03T23:34:11.927Z,49.50
2017-07-03T23:36:39.403Z,49.40
2017-07-03T23:39:06.890Z,49.60
2017-07-03T23:41:34.370Z,49.60
2017-07-03T23:44:01.860Z,49.70
2017-07-03T23:46:29.331Z,49.90
2017-07-03T23:48:56.823Z,50.00
2017-07-03T23:51:24.300Z,50.20
2017-07-03T23:53:51.786Z,50.00
2017-07-03T23:56:19.281Z,50.30
2017-07-03T23:58:46.784Z,50.70
